Time;durP1;ratioP1;P1;durP2;ratioP2;P2;SDS_P1;SDS_P2;PMS_P1;PMS_P2;Temp;Humidity;BMP_temperature;BMP_pressure;BME280_temperature;BME280_humidity;BME280_pressure;Samples;Min_cycle;Max_cycle;Signal;HPM_P1;HPM_P2
2022/08/02 00:01:34;;;;;;;8.88;6.38;;;;;;;17.22;87.23;101190.69;5010449;28;20050;-81
2022/08/02 00:04:01;;;;;;;9.93;6.65;;;;;;;17.29;87.31;101207.44;5010588;28;20101;-80
2022/08/02 00:06:29;;;;;;;9.60;6.38;;;;;;;17.09;87.59;101177.28;5003028;28;20050;-81
2022/08/02 00:08:56;;;;;;;12.00;6.07;;;;;;;17.13;87.54;101183.84;5004070;28;20058;-81
2022/08/02 00:11:23;;;;;;;9.55;6.63;;;;;;;17.00;87.79;101179.25;5003201;28;20529;-81
2022/08/02 00:13:50;;;;;;;9.93;6.18;;;;;;;17.17;87.71;101206.28;5004489;28;20062;-81
2022/08/02 00:16:17;;;;;;;9.70;6.55;;;;;;;17.24;87.43;101208.00;5005290;28;20050;-82
2022/08/02 00:18:45;;;;;;;10.27;6.53;;;;;;;17.19;87.11;101191.03;5006100;28;20488;-84
2022/08/02 00:21:11;;;;;;;11.70;6.47;;;;;;;17.24;87.31;101200.06;5006114;28;20605;-83
2022/08/02 00:23:39;;;;;;;10.90;6.40;;;;;;;17.23;87.48;101206.38;5004599;28;20253;-81
2022/08/02 00:26:06;;;;;;;8.73;6.38;;;;;;;17.28;87.25;101197.06;5003977;28;20070;-79
2022/08/02 00:28:33;;;;;;;9.85;6.78;;;;;;;17.23;87.39;101189.66;5003546;28;20428;-81
2022/08/02 00:31:00;;;;;;;9.73;6.65;;;;;;;17.19;87.70;101198.97;5002679;28;20088;-80
2022/08/02 00:33:27;;;;;;;9.70;6.05;;;;;;;17.21;87.80;101197.78;5001212;28;20085;-81
2022/08/02 00:35:54;;;;;;;12.07;6.68;;;;;;;17.16;87.97;101191.41;5002996;28;20058;-82
2022/08/02 00:38:20;;;;;;;10.93;6.30;;;;;;;17.12;88.08;101198.06;5002597;28;20046;-79
2022/08/02 00:40:49;;;;;;;9.73;6.28;;;;;;;17.20;87.97;101190.03;5002916;28;20069;-80
2022/08/02 00:43:16;;;;;;;11.50;6.72;;;;;;;17.12;88.04;101196.25;5001559;28;20077;-81
2022/08/02 00:45:43;;;;;;;8.90;6.47;;;;;;;17.09;88.25;101191.34;5002266;28;20081;-82
2022/08/02 00:48:12;;;;;;;10.70;6.93;;;;;;;17.00;88.43;101186.34;5001480;28;20105;-82
2022/08/02 00:50:39;;;;;;;13.77;7.13;;;;;;;17.00;88.54;101189.00;5002614;28;20108;-81
2022/08/02 00:53:08;;;;;;;12.40;7.35;;;;;;;16.92;88.56;101181.97;5003058;28;20042;-81
2022/08/02 00:55:36;;;;;;;7.65;6.45;;;;;;;16.87;88.98;101179.06;5002415;28;20137;-82
2022/08/02 00:58:04;;;;;;;12.65;7.50;;;;;;;16.83;89.13;101178.63;5001055;28;20066;-80
2022/08/02 01:00:34;;;;;;;11.50;6.93;;;;;;;16.72;89.12;101172.97;5001852;28;20069;-83
2022/08/02 01:03:00;;;;;;;13.32;7.68;;;;;;;16.75;89.01;101180.53;5002735;28;20465;-82
2022/08/02 01:05:27;;;;;;;10.20;7.03;;;;;;;16.64;89.57;101171.22;5001440;28;20058;-81
2022/08/02 01:07:54;;;;;;;7.95;6.13;;;;;;;16.74;89.63;101179.72;5002432;28;20057;-80
2022/08/02 01:10:20;;;;;;;12.30;6.95;;;;;;;16.74;89.81;101179.72;5001990;28;20121;-81
2022/08/02 01:12:47;;;;;;;12.48;6.72;;;;;;;16.72;90.01;101176.44;5001936;28;20105;-82
2022/08/02 01:15:17;;;;;;;10.80;6.78;;;;;;;16.58;90.02;101169.28;5002963;28;20054;-82
2022/08/02 01:17:48;;;;;;;11.32;7.00;;;;;;;16.53;90.16;101180.44;5003163;28;20069;-82
2022/08/02 01:20:36;;;;;;;10.10;6.38;;;;;;;16.48;89.97;101181.97;5002134;28;20046;-83
2022/08/02 01:23:16;;;;;;;8.25;6.60;;;;;;;16.50;90.03;101177.31;5002474;28;20054;-80
2022/08/02 01:26:02;;;;;;;8.23;6.40;;;;;;;16.54;90.53;101181.25;5003163;28;20054;-81
2022/08/02 01:28:37;;;;;;;10.13;7.20;;;;;;;16.47;90.54;101170.56;5007482;28;20089;-80
2022/08/02 01:31:18;;;;;;;9.07;6.22;;;;;;;16.45;90.97;101174.41;5007646;28;20085;-82
2022/08/02 01:33:51;;;;;;;11.25;6.57;;;;;;;16.36;90.96;101167.56;5009438;28;20046;-80
2022/08/02 01:36:22;;;;;;;10.18;6.55;;;;;;;16.40;91.43;101171.47;5004827;28;20069;-80
2022/08/02 01:38:51;;;;;;;12.20;6.60;;;;;;;16.38;91.53;101157.63;5003060;28;20046;-81
2022/08/02 01:41:21;;;;;;;8.70;6.38;;;;;;;16.37;91.63;101162.09;5002304;28;20050;-80
2022/08/02 01:43:52;;;;;;;12.13;6.82;;;;;;;16.38;91.64;101165.56;5003489;28;20074;-79
2022/08/02 01:46:23;;;;;;;11.25;7.10;;;;;;;16.38;91.96;101165.56;5004247;28;20078;-80
2022/08/02 01:48:52;;;;;;;12.82;6.38;;;;;;;16.39;91.93;101151.34;5002731;28;20494;-80
2022/08/02 01:52:20;;;;;;;10.50;6.85;;;;;;;16.36;92.13;101141.16;5003589;28;20050;-79
2022/08/02 01:54:11;;;;;;;8.98;6.30;;;;;;;16.30;92.04;101139.22;5005862;28;20060;-79
2022/08/02 01:56:39;;;;;;;12.73;6.88;;;;;;;16.29;92.17;101133.13;5006398;28;20086;-82
2022/08/02 01:59:16;;;;;;;10.07;6.45;;;;;;;16.21;92.24;101126.09;5007021;28;20078;-83
2022/08/02 02:01:44;;;;;;;10.43;6.28;;;;;;;16.30;92.44;101134.75;5006870;28;20058;-82
2022/08/02 02:04:14;;;;;;;11.32;6.63;;;;;;;16.20;92.52;101127.09;5007078;28;20054;-80
2022/08/02 02:06:42;;;;;;;9.25;6.07;;;;;;;16.19;92.81;101133.38;5005910;28;20050;-79
2022/08/02 02:09:10;;;;;;;8.98;6.35;;;;;;;16.20;92.83;101126.28;5006515;28;20046;-81
2022/08/02 02:11:38;;;;;;;10.68;6.30;;;;;;;16.24;92.89;101128.38;5006921;28;20047;-79
2022/08/02 02:14:07;;;;;;;9.45;6.70;;;;;;;16.22;92.74;101125.09;5006996;28;20046;-81
2022/08/02 02:16:36;;;;;;;12.63;6.65;;;;;;;16.19;92.83;101122.81;5005841;28;20082;-82
2022/08/02 02:19:05;;;;;;;7.55;6.18;;;;;;;16.27;92.66;101124.56;5006809;28;20089;-83
2022/08/02 02:21:32;;;;;;;9.27;6.40;;;;;;;16.22;92.55;101124.28;5006592;28;20110;-80
2022/08/02 02:23:59;;;;;;;9.30;6.07;;;;;;;16.09;93.16;101127.53;5005147;28;20105;-82
2022/08/02 02:26:28;;;;;;;11.32;6.70;;;;;;;15.93;93.89;101114.50;4996693;28;20125;-81
2022/08/02 02:28:56;;;;;;;9.90;6.72;;;;;;;15.84;94.31;101107.66;5003714;28;20109;-80
2022/08/02 02:31:24;;;;;;;10.65;6.88;;;;;;;15.75;94.65;101103.44;5002725;28;20100;-83
2022/08/02 02:34:04;;;;;;;12.80;6.82;;;;;;;15.74;95.03;101100.00;5008485;28;20050;-82
2022/08/02 02:36:33;;;;;;;9.48;6.70;;;;;;;15.80;94.86;101109.00;5008731;28;20058;-82
2022/08/02 02:39:07;;;;;;;10.02;6.55;;;;;;;15.81;94.53;101108.00;5008505;28;20086;-81
2022/08/02 02:41:34;;;;;;;11.77;6.47;;;;;;;15.82;94.38;101096.47;5008077;28;20060;-85
2022/08/02 02:44:04;;;;;;;11.90;6.10;;;;;;;15.82;94.77;101112.28;5008380;28;20066;-83
2022/08/02 02:46:41;;;;;;;8.25;6.65;;;;;;;15.84;94.56;101102.38;5007190;28;20054;-82
2022/08/02 03:23:44;;;;;;;12.57;8.10;;;;;;;15.32;96.47;101079.38;4953825;29;20043;-83
2022/08/02 03:26:20;;;;;;;11.52;8.18;;;;;;;15.28;96.46;101085.97;4964943;29;20062;-82
2022/08/02 03:28:46;;;;;;;11.40;8.35;;;;;;;15.23;96.63;101093.59;5001795;28;20106;-82
2022/08/02 03:31:13;;;;;;;12.77;8.23;;;;;;;15.24;96.72;101101.31;5011420;28;20074;-81
2022/08/02 03:34:03;;;;;;;16.05;8.70;;;;;;;15.24;96.68;101097.88;5011758;28;20129;-82
2022/08/02 03:36:44;;;;;;;10.63;8.55;;;;;;;15.07;96.65;101070.00;5005027;28;20097;-83
2022/08/02 03:39:42;;;;;;;10.57;8.10;;;;;;;15.24;96.67;101089.97;5005403;28;20093;-83
2022/08/02 03:42:50;;;;;;;11.68;9.18;;;;;;;15.21;96.82;101087.69;5005281;28;20141;-82
2022/08/02 03:48:25;;;;;;;13.05;8.25;;;;;;;15.21;97.11;101090.31;5006061;28;20108;-81
2022/08/02 04:11:36;;;;;;;13.30;9.55;;;;;;;14.73;98.43;101065.06;4909901;29;20052;-83
2022/08/02 04:17:59;;;;;;;;;;;;;;;;;;;;;
2022/08/02 04:26:37;;;;;;;12.82;9.45;;;;;;;15.03;99.05;101105.59;5046313;23;20049;-80
2022/08/02 04:29:05;;;;;;;14.05;9.70;;;;;;;15.03;98.94;101105.59;5019985;28;20054;-80
2022/08/02 04:31:32;;;;;;;16.67;9.27;;;;;;;15.09;99.00;101112.81;5015785;28;20052;-79
2022/08/02 04:34:00;;;;;;;12.70;9.40;;;;;;;15.15;98.53;101106.81;5016364;28;20496;-80
2022/08/02 04:36:26;;;;;;;14.57;8.77;;;;;;;15.38;97.72;101107.66;5005291;28;20109;-80
2022/08/02 04:38:53;;;;;;;14.18;9.30;;;;;;;15.41;96.85;101112.59;5002115;28;20113;-79
2022/08/02 04:41:20;;;;;;;18.23;9.40;;;;;;;15.39;96.69;101111.94;5003244;28;20085;-81
2022/08/02 04:43:48;;;;;;;16.35;9.35;;;;;;;15.34;96.85;101110.81;4999325;28;20143;-79
2022/08/02 04:46:14;;;;;;;13.68;9.73;;;;;;;15.35;97.04;101110.66;5000363;28;20077;-77
2022/08/02 04:48:41;;;;;;;13.77;9.20;;;;;;;15.45;96.84;101103.34;4996569;28;20086;-79
2022/08/02 04:51:10;;;;;;;15.38;9.93;;;;;;;15.58;96.49;101108.06;4996596;28;20100;-79
2022/08/02 04:53:37;;;;;;;14.10;9.60;;;;;;;15.57;96.41;101115.16;4995869;28;20469;-81
2022/08/02 04:56:04;;;;;;;12.85;9.80;;;;;;;15.58;95.99;101110.69;4988228;28;20078;-79
2022/08/02 04:58:30;;;;;;;12.48;9.40;;;;;;;15.78;95.20;101116.28;4981001;28;20073;-81
2022/08/02 05:00:58;;;;;;;11.93;9.25;;;;;;;16.05;94.13;101109.63;4997029;28;20039;-85
2022/08/02 05:03:26;;;;;;;11.65;9.00;;;;;;;16.30;92.64;101107.53;4997474;28;20162;-81
2022/08/02 05:05:55;;;;;;;13.85;9.43;;;;;;;16.68;91.43;101106.44;4997444;28;20097;-81
2022/08/02 05:08:22;;;;;;;13.95;8.85;;;;;;;16.69;90.91;101108.09;4997761;28;20056;-86
2022/08/02 05:10:48;;;;;;;11.90;9.05;;;;;;;16.72;90.52;101102.44;4998043;28;20055;-80
2022/08/02 05:13:15;;;;;;;11.30;8.48;;;;;;;17.11;89.15;101106.53;4996512;28;20058;-81
2022/08/02 05:15:42;;;;;;;11.90;9.25;;;;;;;17.51;87.59;101119.16;5003768;28;20057;-79
2022/08/02 05:18:11;;;;;;;14.82;9.10;;;;;;;18.02;86.01;101108.38;5005235;28;20046;-81
2022/08/02 05:20:37;;;;;;;14.10;8.98;;;;;;;18.48;82.96;101127.22;5008289;28;20053;-81
2022/08/02 05:23:04;;;;;;;12.35;8.48;;;;;;;18.71;82.23;101121.66;5006209;28;20101;-79
2022/08/02 05:25:30;;;;;;;11.68;7.57;;;;;;;19.42;79.15;101140.63;4984555;28;20051;-80
2022/08/02 05:27:57;;;;;;;9.43;7.97;;;;;;;19.78;77.67;101124.38;4984230;28;20050;-81
2022/08/02 05:30:24;;;;;;;16.02;8.27;;;;;;;19.78;77.13;101123.56;4984819;28;20051;-80
2022/08/02 05:32:51;;;;;;;11.77;7.85;;;;;;;19.64;78.29;101127.22;4995307;28;20077;-82
2022/08/02 05:35:21;;;;;;;11.32;8.10;;;;;;;19.70;78.30;101123.78;5004469;28;20050;-81
2022/08/02 05:37:48;;;;;;;12.38;8.60;;;;;;;19.67;78.56;101121.53;5005144;28;20073;-82
2022/08/02 05:40:16;;;;;;;13.75;7.70;;;;;;;19.96;77.66;101125.59;5005556;28;20050;-81
2022/08/02 05:42:43;;;;;;;10.02;7.70;;;;;;;20.38;76.72;101130.44;4992459;28;20074;-77
2022/08/02 05:45:11;;;;;;;12.43;7.60;;;;;;;20.35;75.87;101125.53;4984291;28;20083;-80
2022/08/02 05:47:38;;;;;;;13.88;7.88;;;;;;;20.36;76.08;101116.53;4979902;28;20422;-80
2022/08/02 05:50:06;;;;;;;11.50;8.90;;;;;;;20.09;76.91;101121.09;4998438;28;20089;-80
2022/08/02 05:52:44;;;;;;;11.25;8.23;;;;;;;20.74;74.91;101124.63;5000612;28;20042;-80
2022/08/02 05:55:13;;;;;;;10.10;7.90;;;;;;;21.53;72.81;101105.56;5001008;28;20057;-82
2022/08/02 05:57:45;;;;;;;12.50;8.20;;;;;;;20.81;74.12;101114.75;5000803;28;20106;-80
2022/08/02 06:00:14;;;;;;;10.75;8.13;;;;;;;20.40;75.10;101117.78;5001736;28;20074;-81
2022/08/02 06:02:51;;;;;;;14.68;7.03;;;;;;;20.39;74.83;101118.78;5002555;28;20074;-81
2022/08/02 06:05:20;;;;;;;11.95;6.90;;;;;;;20.71;74.93;101126.91;5003568;28;20524;-81
2022/08/02 06:07:49;;;;;;;18.88;8.48;;;;;;;20.23;75.98;101131.69;5001536;28;20425;-80
2022/08/02 06:10:21;;;;;;;15.80;8.50;;;;;;;19.96;77.75;101138.88;4981804;28;20047;-79
2022/08/02 06:12:49;;;;;;;17.90;7.93;;;;;;;20.93;75.01;101127.41;4978601;28;20090;-81
2022/08/02 06:15:19;;;;;;;13.88;7.80;;;;;;;21.68;71.44;101117.75;4978547;28;20066;-83
2022/08/02 06:17:46;;;;;;;10.88;6.72;;;;;;;22.22;69.65;101117.06;4978718;28;20079;-80
2022/08/02 06:20:13;;;;;;;9.88;6.70;;;;;;;22.80;67.41;101104.09;4977720;28;20529;-80
2022/08/02 06:22:42;;;;;;;14.57;6.32;;;;;;;23.11;66.16;101103.06;4976950;28;20156;-78
2022/08/02 06:25:11;;;;;;;13.38;8.02;;;;;;;23.02;66.97;101104.44;4974421;28;20058;-79
2022/08/02 06:27:39;;;;;;;11.07;6.55;;;;;;;22.91;66.26;101109.72;4985753;28;20138;-80
2022/08/02 06:30:07;;;;;;;9.45;6.75;;;;;;;22.05;68.60;101105.34;4995741;28;20393;-81
2022/08/02 06:32:34;;;;;;;10.93;7.32;;;;;;;22.54;68.38;101109.75;4999416;28;20153;-82
2022/08/02 06:35:01;;;;;;;8.38;6.45;;;;;;;22.67;68.23;101108.78;4995873;28;20473;-81
2022/08/02 06:37:36;;;;;;;10.50;7.25;;;;;;;23.44;65.74;101105.25;4980546;28;20082;-81
2022/08/02 06:40:08;;;;;;;11.10;6.95;;;;;;;22.99;66.12;101093.41;4982446;28;20096;-80
2022/08/02 06:42:46;;;;;;;12.90;6.95;;;;;;;24.33;63.79;101097.16;4979149;28;20051;-78
2022/08/02 06:45:12;;;;;;;11.00;7.15;;;;;;;24.50;61.71;101098.06;4985360;28;20081;-78
2022/08/02 06:47:39;;;;;;;12.70;7.07;;;;;;;23.43;65.03;101092.94;4998084;28;20085;-82
2022/08/02 06:50:06;;;;;;;11.82;7.30;;;;;;;22.79;67.38;101091.78;4998983;28;20078;-81
2022/08/02 06:52:34;;;;;;;14.68;7.18;;;;;;;23.11;66.97;101104.94;4998725;28;20082;-80
2022/08/02 06:55:02;;;;;;;12.52;7.00;;;;;;;23.76;65.59;101107.63;4993174;28;20077;-81
2022/08/02 06:57:29;;;;;;;15.68;7.90;;;;;;;23.40;66.11;101106.75;4977486;28;20050;-80
2022/08/02 07:00:00;;;;;;;11.20;7.45;;;;;;;24.32;63.61;101106.25;4976429;28;20082;-80
2022/08/02 07:02:27;;;;;;;10.63;7.38;;;;;;;25.20;62.13;101103.16;4976010;28;20057;-79
2022/08/02 07:04:54;;;;;;;13.02;6.97;;;;;;;24.02;64.18;101104.50;4990497;28;20125;-78
2022/08/02 07:07:21;;;;;;;10.77;7.30;;;;;;;23.99;64.40;101112.19;4996268;28;20082;-78
2022/08/02 07:09:48;;;;;;;12.55;7.13;;;;;;;25.14;61.35;101098.75;4999090;28;20077;-79
2022/08/02 07:12:14;;;;;;;11.38;7.55;;;;;;;24.42;62.27;101101.13;5004164;28;20086;-85
2022/08/02 07:14:41;;;;;;;8.63;6.80;;;;;;;24.19;62.97;101093.91;4991469;28;20560;-81
2022/08/02 07:17:09;;;;;;;13.43;7.20;;;;;;;25.64;58.88;101103.38;4986075;28;20047;-82
2022/08/02 07:19:38;;;;;;;11.23;7.07;;;;;;;25.99;58.13;101095.88;4979575;28;20137;-81
2022/08/02 07:22:05;;;;;;;14.88;7.07;;;;;;;25.28;59.84;101100.09;4982449;28;20086;-83
2022/08/02 07:24:32;;;;;;;11.82;6.03;;;;;;;26.99;55.84;101099.25;4981144;28;20093;-81
2022/08/02 07:27:01;;;;;;;10.20;6.30;;;;;;;27.26;54.82;101089.31;4999210;28;20086;-80
2022/08/02 07:29:27;;;;;;;9.82;6.22;;;;;;;27.54;53.57;101096.25;4998494;28;20085;-83
2022/08/02 07:31:54;;;;;;;10.68;6.25;;;;;;;27.32;53.82;101093.69;4980120;28;20069;-80
2022/08/02 07:34:22;;;;;;;12.13;6.65;;;;;;;27.97;51.29;101100.59;4979299;28;20081;-82
2022/08/02 07:36:49;;;;;;;12.60;7.03;;;;;;;25.89;57.01;101101.09;4980977;28;20082;-82
2022/08/02 07:39:15;;;;;;;8.88;6.72;;;;;;;27.58;53.25;101091.19;4984493;28;20496;-82
2022/08/02 07:41:42;;;;;;;13.30;6.40;;;;;;;28.51;51.34;101103.06;5004477;28;20082;-82
2022/08/02 07:44:08;;;;;;;10.13;6.70;;;;;;;28.05;51.71;101089.38;5006172;28;20110;-79
2022/08/02 07:46:35;;;;;;;10.85;6.53;;;;;;;28.03;51.56;101088.00;5006523;28;20082;-81
2022/08/02 07:49:02;;;;;;;15.70;6.85;;;;;;;27.91;52.40;101098.97;5006341;28;20129;-80
2022/08/02 07:51:32;;;;;;;10.15;5.93;;;;;;;28.35;51.70;101094.13;4990199;28;20065;-83
2022/08/02 07:53:58;;;;;;;12.70;6.32;;;;;;;28.61;51.25;101100.41;4986424;28;20110;-81
2022/08/02 07:56:25;;;;;;;9.85;5.78;;;;;;;28.96;51.07;101085.41;4985918;28;20078;-81
2022/08/02 07:58:52;;;;;;;10.82;6.20;;;;;;;27.36;53.25;101085.91;4986593;28;20051;-83
2022/08/02 08:01:19;;;;;;;14.57;6.07;;;;;;;27.25;53.98;101087.69;4999891;28;20061;-80
2022/08/02 08:03:46;;;;;;;9.38;5.63;;;;;;;27.58;52.81;101085.81;5005071;28;20070;-81
2022/08/02 08:06:13;;;;;;;10.20;5.65;;;;;;;27.77;53.27;101079.00;5006596;28;20057;-81
2022/08/02 08:08:42;;;;;;;6.40;4.97;;;;;;;28.04;52.69;101082.38;5006725;28;20064;-80
2022/08/02 08:11:08;;;;;;;14.88;5.80;;;;;;;28.81;51.93;101080.00;4994115;28;20046;-81
2022/08/02 08:13:35;;;;;;;10.35;5.80;;;;;;;28.57;51.13;101077.78;4994500;28;20136;-81
2022/08/02 08:16:02;;;;;;;13.80;5.50;;;;;;;28.99;51.15;101074.13;5005511;28;20077;-83
2022/08/02 08:18:29;;;;;;;11.40;5.57;;;;;;;29.60;49.98;101079.53;4997540;28;20129;-84
2022/08/02 08:20:56;;;;;;;15.18;5.55;;;;;;;28.87;50.99;101076.25;4986075;28;20119;-82
2022/08/02 08:23:23;;;;;;;10.27;5.65;;;;;;;27.89;52.20;101071.50;4985666;28;20082;-82
2022/08/02 08:25:51;;;;;;;11.65;5.30;;;;;;;27.99;52.22;101070.75;4986118;28;20085;-80
2022/08/02 08:28:18;;;;;;;11.20;5.05;;;;;;;28.91;51.27;101071.94;5004589;28;20056;-81
2022/08/02 08:30:46;;;;;;;12.50;5.20;;;;;;;29.83;49.58;101070.84;5002713;28;20100;-82
2022/08/02 08:33:13;;;;;;;15.52;4.72;;;;;;;30.42;48.60;101067.44;5004072;28;20050;-81
2022/08/02 08:35:39;;;;;;;10.57;4.82;;;;;;;30.37;48.27;101072.84;5002681;28;20073;-81
2022/08/02 08:38:07;;;;;;;6.85;4.53;;;;;;;30.85;47.05;101060.44;4993727;28;20054;-82
2022/08/02 08:40:34;;;;;;;8.40;5.32;;;;;;;30.43;47.45;101063.63;4993384;28;20053;-84
2022/08/02 08:43:02;;;;;;;9.20;4.60;;;;;;;30.56;47.50;101060.34;4994067;28;20046;-82
2022/08/02 08:45:28;;;;;;;10.68;4.95;;;;;;;30.45;47.17;101058.78;4992886;28;20042;-81
2022/08/02 08:48:01;;;;;;;13.00;4.47;;;;;;;30.75;47.22;101054.28;4993323;28;20065;-81
2022/08/02 08:50:33;;;;;;;7.32;4.80;;;;;;;30.66;47.86;101057.63;4994032;28;20056;-80
2022/08/02 08:53:03;;;;;;;6.30;4.65;;;;;;;30.34;46.91;101058.00;4994992;28;20050;-84
2022/08/02 08:55:33;;;;;;;7.50;5.05;;;;;;;29.42;49.35;101047.72;4994572;28;20080;-84
2022/08/02 08:58:03;;;;;;;13.85;4.57;;;;;;;29.33;49.43;101047.44;4992241;28;20110;-84
2022/08/02 09:00:31;;;;;;;8.27;4.90;;;;;;;28.71;50.09;101045.78;4987813;28;20060;-82
2022/08/02 09:02:59;;;;;;;6.72;4.68;;;;;;;29.54;48.86;101040.97;4987823;28;20042;-83
2022/08/02 09:05:25;;;;;;;10.70;5.18;;;;;;;29.37;48.77;101033.16;4988233;28;20082;-79
2022/08/02 09:07:53;;;;;;;9.13;4.65;;;;;;;30.26;48.94;101036.97;4989504;28;20783;-82
2022/08/02 09:10:36;;;;;;;10.70;4.60;;;;;;;30.03;48.41;101041.16;4988117;28;20461;-79
2022/08/02 09:13:10;;;;;;;9.05;4.63;;;;;;;30.14;48.24;101038.41;4991823;28;20425;-81
2022/08/02 09:15:39;;;;;;;10.75;5.15;;;;;;;29.57;48.33;101031.53;4989451;28;20394;-81
2022/08/02 09:18:07;;;;;;;7.20;4.82;;;;;;;29.23;49.09;101029.41;4979775;28;20082;-80
2022/08/02 09:20:34;;;;;;;8.35;4.55;;;;;;;28.23;51.33;101022.75;4984731;28;20108;-79
2022/08/02 09:23:10;;;;;;;8.20;5.10;;;;;;;28.97;50.73;101028.59;4997848;28;20054;-81
2022/08/02 09:25:37;;;;;;;10.95;4.55;;;;;;;27.97;50.81;101019.91;4980894;28;20074;-79
2022/08/02 09:28:05;;;;;;;12.05;4.90;;;;;;;28.06;52.68;101029.09;4979926;28;20061;-83
2022/08/02 09:30:42;;;;;;;5.40;3.78;;;;;;;28.05;51.60;101026.69;5004402;28;20053;-79
2022/08/02 09:33:09;;;;;;;10.55;4.38;;;;;;;28.53;51.04;101027.41;5014829;28;20140;-79
2022/08/02 09:35:38;;;;;;;5.80;3.80;;;;;;;28.46;49.72;101022.28;4996484;28;20129;-80
2022/08/02 09:38:13;;;;;;;11.55;4.72;;;;;;;28.44;50.72;101027.13;4982630;28;20078;-78
2022/08/02 09:40:43;;;;;;;88.30;15.18;;;;;;;28.91;49.85;101036.91;4982434;28;20046;-81
2022/08/02 09:43:09;;;;;;;53.90;10.13;;;;;;;29.27;49.36;101026.97;4982414;28;20146;-79
2022/08/02 09:45:37;;;;;;;29.83;6.13;;;;;;;29.18;50.28;101026.72;4989255;28;20085;-79
2022/08/02 09:48:07;;;;;;;9.25;4.40;;;;;;;29.72;49.12;101028.81;4995599;28;20085;-79
2022/08/02 09:50:34;;;;;;;6.28;4.35;;;;;;;30.40;46.59;101022.88;4995992;28;20054;-79
2022/08/02 09:53:01;;;;;;;9.82;4.47;;;;;;;30.06;47.60;101023.59;4996228;28;20109;-79
2022/08/02 09:55:29;;;;;;;6.47;4.00;;;;;;;30.13;46.73;101024.13;4994720;28;20416;-80
2022/08/02 09:57:56;;;;;;;70.57;11.23;;;;;;;30.62;45.50;101023.34;4984715;28;20074;-78
2022/08/02 10:00:23;;;;;;;9.27;4.68;;;;;;;30.23;46.40;101017.88;4983505;28;20108;-78
2022/08/02 10:03:11;;;;;;;7.68;4.20;;;;;;;30.49;45.73;101011.22;4987427;28;20113;-80
2022/08/02 10:05:49;;;;;;;6.00;3.88;;;;;;;30.42;46.88;101013.41;4990371;28;20452;-79
2022/08/02 10:08:16;;;;;;;6.28;3.80;;;;;;;30.54;45.58;101010.38;4991246;28;20050;-82
2022/08/02 10:10:43;;;;;;;5.85;3.90;;;;;;;30.45;45.42;101010.16;4985731;28;20078;-79
2022/08/02 10:13:11;;;;;;;8.07;4.43;;;;;;;30.19;45.52;101003.31;4989564;28;20085;-79
2022/08/02 10:15:38;;;;;;;20.55;5.45;;;;;;;30.63;44.55;101008.75;4998463;28;20082;-79
2022/08/02 10:18:05;;;;;;;4.82;3.90;;;;;;;30.19;44.38;101011.41;5000814;28;20090;-80
2022/08/02 10:20:40;;;;;;;5.63;4.05;;;;;;;29.98;45.83;101003.34;4992586;28;20109;-79
2022/08/02 10:23:13;;;;;;;13.60;4.28;;;;;;;30.33;46.07;101004.28;4995187;28;20109;-80
2022/08/02 10:25:40;;;;;;;10.68;3.90;;;;;;;30.13;45.32;101007.13;5004341;28;20074;-79
2022/08/02 10:28:08;;;;;;;6.55;3.95;;;;;;;29.60;45.50;100985.97;5016530;23;20656;-79
2022/08/02 10:30:38;;;;;;;6.68;3.72;;;;;;;28.99;46.15;100998.69;5010078;28;20104;-79
2022/08/02 10:33:07;;;;;;;5.65;3.88;;;;;;;28.93;46.82;100988.97;5000470;28;20050;-79
2022/08/02 10:35:38;;;;;;;6.78;4.30;;;;;;;29.73;46.09;100991.88;4993273;28;20078;-80
2022/08/02 10:38:10;;;;;;;6.20;4.20;;;;;;;30.14;44.79;100997.94;5000179;28;20556;-77
2022/08/02 10:40:48;;;;;;;4.75;3.75;;;;;;;30.04;44.51;100998.78;4992153;28;20462;-81
2022/08/02 10:43:47;;;;;;;6.65;3.65;;;;;;;29.62;45.53;100991.09;4999606;28;20077;-81
2022/08/02 10:46:37;;;;;;;5.68;4.15;;;;;;;30.02;45.22;100988.25;4996035;28;20047;-80
2022/08/02 10:49:08;;;;;;;7.28;3.80;;;;;;;29.52;45.98;100980.31;4991899;28;20437;-79
2022/08/02 10:51:55;;;;;;;18.57;4.70;;;;;;;30.14;45.46;100976.34;4994211;28;20046;-77
2022/08/02 10:54:24;;;;;;;8.18;3.70;;;;;;;29.73;45.74;100970.28;4984056;28;20062;-79
2022/08/02 10:56:54;;;;;;;10.65;4.28;;;;;;;29.26;46.65;100974.97;4986555;28;20050;-79
2022/08/02 10:59:26;;;;;;;4.93;3.80;;;;;;;29.12;46.55;100973.09;4984690;28;20081;-79
2022/08/02 11:02:01;;;;;;;4.18;3.58;;;;;;;29.33;45.80;100972.78;4977204;28;20054;-78
2022/08/02 11:04:31;;;;;;;6.18;3.90;;;;;;;30.03;45.26;100981.78;4989443;28;20096;-79
2022/08/02 11:07:10;;;;;;;3.75;3.35;;;;;;;30.27;43.99;100978.41;4991188;28;20497;-77
2022/08/02 11:09:37;;;;;;;5.05;3.67;;;;;;;30.95;43.42;100973.09;4998353;28;20050;-81
2022/08/02 11:12:06;;;;;;;16.63;5.05;;;;;;;31.32;42.31;100976.00;4981386;28;20114;-81
2022/08/02 11:14:35;;;;;;;7.97;4.32;;;;;;;30.82;43.33;100966.44;4981177;28;20047;-80
2022/08/02 11:17:08;;;;;;;4.43;3.72;;;;;;;30.51;43.37;100973.94;4983050;28;20179;-81
2022/08/02 11:19:35;;;;;;;;;;;;;;;30.13;43.95;100962.03;4994356;28;20106;-81
2022/08/02 11:22:03;;;;;;;14.25;3.90;;;;;;;30.25;44.59;100964.38;4984644;28;19922;-79
2022/08/02 11:24:33;;;;;;;7.50;3.67;;;;;;;30.36;45.21;100960.53;4987331;28;20082;-82
2022/08/02 11:27:01;;;;;;;17.23;4.30;;;;;;;30.99;44.26;100966.84;4981474;28;20050;-79
2022/08/02 11:29:39;;;;;;;7.60;4.00;;;;;;;30.79;43.90;100961.59;4988597;28;20046;-80
2022/08/02 11:32:07;;;;;;;26.33;5.78;;;;;;;31.28;43.54;100963.34;5004052;28;20081;-80
2022/08/02 11:34:33;;;;;;;4.57;3.70;;;;;;;31.16;43.71;100961.06;4983001;28;20086;-80
2022/08/02 11:37:00;;;;;;;5.68;4.60;;;;;;;31.14;43.45;100960.53;4983303;28;20078;-81
2022/08/02 11:39:27;;;;;;;10.88;4.05;;;;;;;31.50;42.74;100960.16;4991081;28;20046;-81
2022/08/02 11:42:02;;;;;;;5.75;4.32;;;;;;;31.70;42.56;100964.53;4993013;28;20051;-81
2022/08/02 11:44:30;;;;;;;5.82;3.50;;;;;;;31.27;42.99;100957.13;4990383;28;20047;-82
2022/08/02 11:46:58;;;;;;;5.90;4.10;;;;;;;30.93;43.74;100956.34;4982628;28;20038;-79
2022/08/02 11:49:25;;;;;;;8.35;4.13;;;;;;;30.60;44.09;100958.00;4986550;28;20050;-83
2022/08/02 11:51:59;;;;;;;5.53;3.80;;;;;;;30.55;43.67;100950.69;4984897;28;20105;-78
2022/08/02 11:54:28;;;;;;;6.15;4.03;;;;;;;30.54;43.86;100957.19;4984380;28;20035;-79
2022/08/02 11:57:12;;;;;;;16.27;4.57;;;;;;;29.93;44.68;100959.41;4979682;28;20111;-77
2022/08/02 11:59:39;;;;;;;10.07;4.40;;;;;;;30.60;44.58;100948.00;4979711;28;20082;-81
2022/08/02 12:02:07;;;;;;;8.48;3.92;;;;;;;30.53;44.65;100958.28;4977976;28;20047;-81
2022/08/02 12:04:34;;;;;;;8.95;4.00;;;;;;;30.58;44.96;100949.38;4978230;28;20481;-78
2022/08/02 12:07:04;;;;;;;11.90;4.50;;;;;;;30.93;44.87;100942.84;4978229;28;20097;-80
2022/08/02 12:09:34;;;;;;;8.07;4.10;;;;;;;31.01;43.73;100942.25;4980533;28;20485;-79
2022/08/02 12:12:03;;;;;;;13.70;3.97;;;;;;;30.70;43.38;100949.81;4980021;28;20061;-79
2022/08/02 12:14:31;;;;;;;5.22;3.53;;;;;;;30.86;43.42;100951.28;4979232;28;20046;-80
2022/08/02 12:19:43;;;;;;;18.50;4.38;;;;;;;30.66;44.40;100946.06;4979386;28;20110;-79
2022/08/02 12:22:13;;;;;;;6.95;4.15;;;;;;;30.27;44.16;100948.72;4983810;28;20082;-81
2022/08/02 12:24:42;;;;;;;10.55;4.15;;;;;;;30.21;44.95;100939.06;4980865;28;20082;-82
2022/08/02 12:27:10;;;;;;;12.40;4.20;;;;;;;30.21;44.39;100939.06;4983112;28;20051;-81
2022/08/02 12:29:39;;;;;;;9.15;4.15;;;;;;;30.19;44.39;100947.44;4980385;28;20118;-79
2022/08/02 12:32:06;;;;;;;7.00;3.70;;;;;;;30.62;44.19;100934.22;4978959;28;20058;-80
2022/08/02 12:34:34;;;;;;;4.97;3.67;;;;;;;30.35;44.03;100946.22;4975480;28;20421;-79
2022/08/02 12:37:05;;;;;;;6.55;3.97;;;;;;;30.23;44.89;100936.88;4980216;28;20058;-80
2022/08/02 12:39:40;;;;;;;7.20;3.90;;;;;;;30.42;44.23;100937.03;4977309;28;20062;-80
2022/08/02 12:42:10;;;;;;;8.35;4.05;;;;;;;30.60;43.98;100934.50;4984523;28;20058;-80
2022/08/02 12:44:38;;;;;;;4.35;3.75;;;;;;;30.85;43.44;100935.34;4997056;28;20142;-79